Time;durP1;ratioP1;P1;durP2;ratioP2;P2;SDS_P1;SDS_P2;PMS_P1;PMS_P2;Temp;Humidity;BMP_temperature;BMP_pressure;BME280_temperature;BME280_humidity;BME280_pressure;Samples;Min_cycle;Max_cycle;Signal;HPM_P1;HPM_P2
2023/12/19 00:02:04;;;;;;;77.70;34.60;;;7.60;99.90;;;;;;5112196;28;20641;-53
2023/12/19 00:04:33;;;;;;;68.73;33.27;;;7.60;99.90;;;;;;5111077;28;20673;-54
2023/12/19 00:06:58;;;;;;;66.90;33.63;;;7.60;99.90;;;;;;5115578;28;20572;-54
2023/12/19 00:09:24;;;;;;;66.90;32.87;;;7.60;99.90;;;;;;5115461;28;20512;-54
2023/12/19 00:11:49;;;;;;;63.57;33.47;;;7.70;99.90;;;;;;5117034;28;20187;-54
2023/12/19 00:14:16;;;;;;;65.77;32.10;;;7.60;99.90;;;;;;5115607;28;20614;-53
2023/12/19 00:16:41;;;;;;;73.43;32.53;;;7.60;99.90;;;;;;5115236;28;20175;-54
2023/12/19 00:19:08;;;;;;;73.33;32.73;;;7.60;99.90;;;;;;5115521;28;20773;-54
2023/12/19 00:21:34;;;;;;;65.37;34.20;;;7.60;99.90;;;;;;5116049;28;20262;-54
2023/12/19 00:24:00;;;;;;;79.57;33.13;;;7.60;99.90;;;;;;5115629;28;20414;-55
2023/12/19 00:26:25;;;;;;;73.27;34.70;;;7.60;99.90;;;;;;5115205;28;20422;-55
2023/12/19 00:28:51;;;;;;;66.30;32.83;;;7.60;99.90;;;;;;5115198;28;20184;-54
2023/12/19 00:31:23;;;;;;;73.10;35.00;;;7.50;99.90;;;;;;5115904;28;20229;-54
2023/12/19 00:33:48;;;;;;;69.47;31.50;;;7.50;99.90;;;;;;5116352;28;20194;-55
2023/12/19 00:36:18;;;;;;;57.37;28.40;;;7.50;99.90;;;;;;5114845;28;20465;-55
2023/12/19 00:38:44;;;;;;;63.23;30.90;;;7.50;99.90;;;;;;5114845;28;20167;-54
2023/12/19 00:41:09;;;;;;;57.53;29.43;;;7.50;99.90;;;;;;5115112;28;20428;-55
2023/12/19 00:43:35;;;;;;;62.50;30.47;;;7.60;99.90;;;;;;5114747;28;20184;-54
2023/12/19 00:46:00;;;;;;;56.00;28.97;;;7.60;99.90;;;;;;5114969;28;20184;-54
2023/12/19 00:48:26;;;;;;;58.70;30.23;;;7.60;99.90;;;;;;5115955;28;20194;-55
2023/12/19 00:50:51;;;;;;;57.43;29.20;;;7.60;99.90;;;;;;5114947;28;20175;-54
2023/12/19 00:53:17;;;;;;;54.90;27.67;;;7.50;99.90;;;;;;5114445;28;20183;-55
2023/12/19 00:55:42;;;;;;;54.83;27.97;;;7.60;99.90;;;;;;5115254;28;20214;-55
2023/12/19 00:58:08;;;;;;;46.80;25.60;;;7.60;99.90;;;;;;5114954;28;20238;-54
2023/12/19 01:00:34;;;;;;;48.83;25.07;;;7.60;99.90;;;;;;5114889;28;20191;-55
2023/12/19 01:02:59;;;;;;;45.27;25.23;;;7.70;99.90;;;;;;5113690;28;20181;-55
2023/12/19 01:05:25;;;;;;;53.17;26.63;;;7.70;99.90;;;;;;5113985;28;20180;-55
2023/12/19 01:07:50;;;;;;;52.83;26.83;;;7.70;99.90;;;;;;5114957;28;20229;-55
2023/12/19 01:10:16;;;;;;;53.20;26.33;;;7.70;99.90;;;;;;5114835;28;20260;-55
2023/12/19 01:12:41;;;;;;;47.17;25.63;;;7.60;99.90;;;;;;5114922;28;20715;-55
2023/12/19 01:15:07;;;;;;;47.33;25.73;;;7.60;99.90;;;;;;5113633;28;20311;-55
2023/12/19 01:17:33;;;;;;;55.87;27.47;;;7.70;99.90;;;;;;5113881;28;20192;-54
2023/12/19 01:19:58;;;;;;;48.20;25.33;;;7.70;99.90;;;;;;5114638;28;20422;-54
2023/12/19 01:22:24;;;;;;;50.23;25.77;;;7.60;99.90;;;;;;5114303;28;20196;-54
2023/12/19 01:24:50;;;;;;;46.70;26.03;;;7.60;99.90;;;;;;5096803;28;20188;-54
2023/12/19 01:27:15;;;;;;;51.33;27.70;;;7.60;99.90;;;;;;5114821;28;20448;-54
2023/12/19 01:29:41;;;;;;;47.67;25.70;;;7.60;99.90;;;;;;5113874;28;20186;-54
2023/12/19 01:32:07;;;;;;;46.30;25.37;;;7.60;99.90;;;;;;5114326;28;20199;-54
2023/12/19 01:34:32;;;;;;;45.73;25.03;;;7.60;99.90;;;;;;5113874;28;20308;-55
2023/12/19 01:36:58;;;;;;;53.80;25.93;;;7.60;99.90;;;;;;5113715;28;20241;-54
2023/12/19 01:39:23;;;;;;;48.13;24.60;;;7.70;99.90;;;;;;5113576;28;20181;-54
2023/12/19 01:41:49;;;;;;;45.30;25.70;;;7.60;99.90;;;;;;5113834;28;20601;-54
2023/12/19 01:44:18;;;;;;;47.20;25.77;;;7.60;99.90;;;;;;5114292;28;20176;-54
2023/12/19 01:46:44;;;;;;;48.53;25.77;;;7.60;99.90;;;;;;5114168;28;20180;-54
2023/12/19 01:49:10;;;;;;;53.77;26.70;;;7.60;99.90;;;;;;5113640;28;20432;-54
2023/12/19 01:51:36;;;;;;;49.80;26.10;;;7.60;99.90;;;;;;5114063;28;20413;-54
2023/12/19 01:54:04;;;;;;;47.57;25.90;;;7.60;99.90;;;;;;5113393;28;20189;-54
2023/12/19 01:56:31;;;;;;;49.60;24.20;;;7.60;99.90;;;;;;5114009;28;20552;-55
2023/12/19 01:58:59;;;;;;;46.50;24.77;;;7.60;99.90;;;;;;5113547;28;20757;-54
2023/12/19 02:01:26;;;;;;;49.63;25.40;;;7.60;99.90;;;;;;5113594;28;20419;-54
2023/12/19 02:03:52;;;;;;;47.80;25.40;;;7.60;99.90;;;;;;5113551;28;20416;-54
2023/12/19 02:06:19;;;;;;;51.40;26.07;;;7.60;99.90;;;;;;5113492;28;20474;-54
2023/12/19 02:08:45;;;;;;;46.13;26.40;;;7.60;99.90;;;;;;5114617;28;20184;-54
2023/12/19 02:11:11;;;;;;;49.70;25.60;;;7.60;99.90;;;;;;5113110;28;20413;-54
2023/12/19 02:13:38;;;;;;;43.90;25.07;;;7.60;99.90;;;;;;5112905;28;20204;-55
2023/12/19 02:16:04;;;;;;;46.33;24.10;;;7.50;99.90;;;;;;5113965;28;20500;-54
2023/12/19 02:18:29;;;;;;;40.93;23.20;;;7.60;99.90;;;;;;5113395;28;20406;-54
2023/12/19 02:20:55;;;;;;;44.53;25.23;;;7.60;99.90;;;;;;5112372;28;20516;-54
2023/12/19 02:23:21;;;;;;;46.63;25.80;;;7.60;99.90;;;;;;5112998;28;20329;-54
2023/12/19 02:25:47;;;;;;;51.57;24.53;;;7.60;99.90;;;;;;5113207;28;20540;-54
2023/12/19 02:28:13;;;;;;;46.83;24.00;;;7.60;99.90;;;;;;5112812;28;20182;-54
2023/12/19 02:30:38;;;;;;;44.60;23.40;;;7.60;99.90;;;;;;5113239;28;20610;-54
2023/12/19 02:33:04;;;;;;;40.57;23.57;;;7.60;99.90;;;;;;5112622;28;20187;-54
2023/12/19 02:35:30;;;;;;;45.20;24.40;;;7.60;99.90;;;;;;5113081;28;20209;-54
2023/12/19 02:37:56;;;;;;;39.50;23.20;;;7.60;99.90;;;;;;5113099;28;20188;-54
2023/12/19 02:40:22;;;;;;;45.47;25.20;;;7.60;99.90;;;;;;5112657;28;20483;-53
2023/12/19 02:42:48;;;;;;;41.00;23.30;;;7.60;99.90;;;;;;5112654;28;20515;-54
2023/12/19 02:45:15;;;;;;;39.83;23.30;;;7.70;99.90;;;;;;5112947;28;20506;-54
2023/12/19 02:47:41;;;;;;;43.13;24.77;;;7.60;99.90;;;;;;5113622;28;20223;-54
2023/12/19 02:50:07;;;;;;;40.50;23.63;;;7.70;99.90;;;;;;5113581;28;20436;-54
2023/12/19 02:52:33;;;;;;;43.63;24.20;;;7.70;99.90;;;;;;5112250;28;20202;-54
2023/12/19 02:54:58;;;;;;;37.93;23.30;;;7.60;99.90;;;;;;5111678;28;20963;-54
2023/12/19 02:57:24;;;;;;;46.70;24.80;;;7.60;99.90;;;;;;5113231;28;20519;-54
2023/12/19 02:59:49;;;;;;;44.63;25.13;;;7.60;99.90;;;;;;5113241;28;20253;-54
2023/12/19 03:02:15;;;;;;;43.60;24.53;;;7.60;99.90;;;;;;5112178;28;20271;-54
2023/12/19 03:04:41;;;;;;;44.30;23.37;;;7.60;99.90;;;;;;5111869;28;20801;-54
2023/12/19 03:07:08;;;;;;;48.53;26.10;;;7.60;99.90;;;;;;5112220;28;20307;-54
2023/12/19 03:09:34;;;;;;;48.73;25.07;;;7.60;99.90;;;;;;5112976;28;20286;-54
2023/12/19 03:12:03;;;;;;;44.43;25.40;;;7.60;99.90;;;;;;5112230;28;20460;-54
2023/12/19 03:14:32;;;;;;;47.17;26.50;;;7.60;99.90;;;;;;5111919;28;20458;-54
2023/12/19 03:16:58;;;;;;;41.50;23.33;;;7.50;99.90;;;;;;5111573;28;20535;-54
2023/12/19 03:19:24;;;;;;;45.43;25.27;;;7.50;99.90;;;;;;5112886;28;20431;-54
2023/12/19 03:21:49;;;;;;;44.53;23.97;;;7.50;99.90;;;;;;5112435;28;20266;-55
2023/12/19 03:24:15;;;;;;;49.20;25.30;;;7.50;99.90;;;;;;5112554;28;20173;-54
2023/12/19 03:26:41;;;;;;;44.17;24.97;;;7.50;99.90;;;;;;5111840;28;20181;-54
2023/12/19 03:29:06;;;;;;;39.07;22.30;;;7.50;99.90;;;;;;5111346;28;20184;-54
2023/12/19 03:31:32;;;;;;;42.00;23.13;;;7.50;99.90;;;;;;5111957;28;20273;-54
2023/12/19 03:33:57;;;;;;;45.30;23.70;;;7.50;99.90;;;;;;5111783;28;20184;-54
2023/12/19 03:36:23;;;;;;;39.30;22.97;;;7.40;99.90;;;;;;5112494;28;20235;-53
2023/12/19 03:38:49;;;;;;;43.70;22.77;;;7.40;99.90;;;;;;5112505;28;20654;-55
2023/12/19 03:41:15;;;;;;;34.03;19.17;;;7.40;99.90;;;;;;5111473;28;20176;-54
2023/12/19 03:43:40;;;;;;;38.77;22.40;;;7.40;99.90;;;;;;5111687;28;21028;-54
2023/12/19 03:46:07;;;;;;;38.20;22.10;;;7.40;99.90;;;;;;5112474;28;20642;-54
2023/12/19 03:48:34;;;;;;;39.47;21.17;;;7.40;99.90;;;;;;5111227;28;20246;-54
2023/12/19 03:51:00;;;;;;;34.37;19.47;;;7.40;99.90;;;;;;5111755;28;20906;-54
2023/12/19 03:53:27;;;;;;;32.00;18.90;;;7.40;99.90;;;;;;5112553;28;20470;-54
2023/12/19 03:55:53;;;;;;;37.50;20.30;;;7.40;99.90;;;;;;5111699;28;20457;-54
2023/12/19 03:58:19;;;;;;;33.30;19.60;;;7.40;99.90;;;;;;5111874;28;20513;-55
2023/12/19 04:00:44;;;;;;;31.87;18.83;;;7.40;99.90;;;;;;5112217;28;20566;-54
2023/12/19 04:03:10;;;;;;;33.07;18.70;;;7.40;99.90;;;;;;5112200;28;20290;-54
2023/12/19 04:05:35;;;;;;;30.97;18.30;;;7.40;99.90;;;;;;5111607;28;20191;-54
2023/12/19 04:08:01;;;;;;;32.93;18.40;;;7.40;99.90;;;;;;5110696;28;20243;-54
2023/12/19 04:10:27;;;;;;;31.13;18.50;;;7.40;99.90;;;;;;5111135;28;20178;-54
2023/12/19 04:12:53;;;;;;;30.27;18.23;;;7.30;99.90;;;;;;5111865;28;20245;-55
2023/12/19 04:15:19;;;;;;;30.73;19.47;;;7.30;99.90;;;;;;5112020;28;20466;-54
2023/12/19 04:17:44;;;;;;;27.30;17.43;;;7.40;99.90;;;;;;5111597;28;20177;-55
2023/12/19 04:20:11;;;;;;;30.13;18.40;;;7.30;99.90;;;;;;5110958;28;21148;-55
2023/12/19 04:22:36;;;;;;;31.30;19.50;;;7.40;99.90;;;;;;5111543;28;20643;-54
2023/12/19 04:25:02;;;;;;;28.10;17.67;;;7.30;99.90;;;;;;5111537;28;20487;-54
2023/12/19 04:27:28;;;;;;;32.73;18.87;;;7.30;99.90;;;;;;5111997;28;20244;-53
2023/12/19 04:29:55;;;;;;;29.83;18.50;;;7.30;99.90;;;;;;5111577;28;20179;-53
2023/12/19 04:32:21;;;;;;;30.13;18.07;;;7.30;99.90;;;;;;5110116;28;20252;-53
2023/12/19 04:34:47;;;;;;;29.30;17.83;;;7.30;99.90;;;;;;5111623;28;21045;-54
2023/12/19 04:37:12;;;;;;;29.30;17.53;;;7.30;99.90;;;;;;5111506;28;20184;-54
2023/12/19 04:39:38;;;;;;;28.50;17.10;;;7.30;99.90;;;;;;5112145;28;20208;-54
2023/12/19 04:42:07;;;;;;;27.90;16.87;;;7.30;99.90;;;;;;5110913;28;20231;-54
2023/12/19 04:44:36;;;;;;;30.70;17.27;;;7.30;99.90;;;;;;5110443;28;20184;-54
2023/12/19 04:47:02;;;;;;;27.60;16.47;;;7.30;99.90;;;;;;5111418;28;20937;-53
2023/12/19 04:49:28;;;;;;;27.93;17.07;;;7.30;99.90;;;;;;5111467;28;20423;-53
2023/12/19 04:51:54;;;;;;;26.30;15.93;;;7.30;99.90;;;;;;5113483;28;20416;-53
2023/12/19 04:54:19;;;;;;;30.73;16.90;;;7.30;99.90;;;;;;5115296;28;20204;-54
2023/12/19 04:56:45;;;;;;;30.47;17.03;;;7.30;99.90;;;;;;5114966;28;20207;-54
2023/12/19 04:59:10;;;;;;;26.30;15.60;;;7.30;99.90;;;;;;5114374;28;20660;-54
2023/12/19 05:01:40;;;;;;;27.23;16.80;;;7.30;99.90;;;;;;5115017;28;20187;-54
2023/12/19 05:04:06;;;;;;;28.73;16.50;;;7.20;99.90;;;;;;5114641;28;20184;-53
2023/12/19 05:06:32;;;;;;;30.67;16.70;;;7.20;99.90;;;;;;5114036;28;21026;-54
2023/12/19 05:08:57;;;;;;;28.10;17.13;;;7.30;99.90;;;;;;5113973;28;20487;-54
2023/12/19 05:11:23;;;;;;;30.20;17.20;;;7.30;99.90;;;;;;5114912;28;20195;-54
2023/12/19 05:13:49;;;;;;;30.63;17.53;;;7.30;99.90;;;;;;5115127;28;20196;-53
2023/12/19 05:16:16;;;;;;;31.10;18.47;;;7.20;99.90;;;;;;5114526;28;20219;-54
2023/12/19 05:18:43;;;;;;;27.70;17.37;;;7.20;99.90;;;;;;5113883;28;20464;-54
2023/12/19 05:21:09;;;;;;;33.73;17.90;;;7.20;99.90;;;;;;5114563;28;20452;-54
2023/12/19 05:23:36;;;;;;;27.80;17.17;;;7.20;99.90;;;;;;5114250;28;20436;-54
2023/12/19 05:26:02;;;;;;;27.87;16.80;;;7.20;99.90;;;;;;5114475;28;20419;-54
2023/12/19 05:28:28;;;;;;;26.80;15.20;;;7.20;99.90;;;;;;5114282;28;20526;-54
2023/12/19 05:30:56;;;;;;;30.73;16.60;;;7.20;99.90;;;;;;5114253;28;20448;-54
2023/12/19 05:33:24;;;;;;;28.93;16.50;;;7.20;99.90;;;;;;5114688;28;20183;-53
2023/12/19 05:35:50;;;;;;;27.63;15.50;;;7.10;99.90;;;;;;5115251;28;20456;-54
2023/12/19 05:38:17;;;;;;;25.53;15.87;;;7.10;99.90;;;;;;5114029;28;20921;-53
2023/12/19 05:40:42;;;;;;;26.20;16.50;;;7.10;99.90;;;;;;5114103;28;20790;-54
2023/12/19 05:43:08;;;;;;;28.00;15.43;;;7.00;99.90;;;;;;5113626;28;20418;-54
2023/12/19 05:45:34;;;;;;;24.20;15.07;;;7.10;99.90;;;;;;5114575;28;20263;-54
2023/12/19 05:48:00;;;;;;;28.83;16.43;;;7.10;99.90;;;;;;5113521;28;20696;-54
2023/12/19 05:50:26;;;;;;;24.30;14.17;;;7.00;99.90;;;;;;5113456;28;20411;-55
2023/12/19 05:52:52;;;;;;;21.70;13.17;;;7.00;99.90;;;;;;5113961;28;20665;-53
2023/12/19 05:55:21;;;;;;;21.43;13.57;;;7.00;99.90;;;;;;5113728;28;20293;-53
2023/12/19 05:57:47;;;;;;;21.10;14.17;;;7.00;99.90;;;;;;5114308;28;20408;-54
2023/12/19 06:00:13;;;;;;;19.67;13.03;;;7.00;99.90;;;;;;5113716;28;20410;-54
2023/12/19 06:02:39;;;;;;;22.37;13.20;;;7.00;99.90;;;;;;5112056;28;20899;-54
2023/12/19 06:05:09;;;;;;;21.80;12.73;;;7.00;99.90;;;;;;5113114;28;20421;-55
2023/12/19 06:07:36;;;;;;;17.87;12.37;;;7.00;99.90;;;;;;5112963;28;20235;-54
2023/12/19 06:10:08;;;;;;;18.80;12.60;;;7.00;99.90;;;;;;5113984;28;20771;-54
2023/12/19 06:12:34;;;;;;;16.10;10.90;;;7.00;99.90;;;;;;5113677;28;20418;-53
2023/12/19 06:15:00;;;;;;;15.60;10.90;;;7.00;99.90;;;;;;5112798;28;20463;-53
2023/12/19 06:17:25;;;;;;;18.60;10.90;;;7.00;99.90;;;;;;5113411;28;20460;-54
2023/12/19 06:19:51;;;;;;;16.47;10.43;;;7.00;99.90;;;;;;5113505;28;20187;-52
2023/12/19 06:22:16;;;;;;;16.63;10.60;;;7.00;99.90;;;;;;5113462;28;20215;-54
2023/12/19 06:24:42;;;;;;;14.20;9.63;;;7.00;99.90;;;;;;5112665;28;20188;-54
2023/12/19 06:27:07;;;;;;;13.70;9.27;;;7.00;99.90;;;;;;5112923;28;20657;-54
2023/12/19 06:29:33;;;;;;;15.13;9.67;;;7.00;99.90;;;;;;5113324;28;20642;-54
2023/12/19 06:31:59;;;;;;;13.40;9.07;;;7.00;99.90;;;;;;5113283;28;20169;-54
2023/12/19 06:34:28;;;;;;;14.23;9.60;;;7.00;99.90;;;;;;5113068;28;20207;-54
2023/12/19 06:36:53;;;;;;;12.53;9.13;;;7.00;99.90;;;;;;5111933;28;20558;-54
2023/12/19 06:39:19;;;;;;;13.43;8.97;;;7.00;99.90;;;;;;5113308;28;20414;-54
2023/12/19 06:41:45;;;;;;;13.63;9.17;;;7.00;99.90;;;;;;5113574;28;20180;-54
2023/12/19 06:44:12;;;;;;;14.40;8.20;;;6.90;99.90;;;;;;5112143;28;21203;-54
2023/12/19 06:46:37;;;;;;;10.67;7.37;;;6.90;99.90;;;;;;5113033;28;20454;-54
2023/12/19 06:49:04;;;;;;;11.40;7.50;;;6.90;99.90;;;;;;5112790;28;20466;-54
2023/12/19 06:51:31;;;;;;;10.73;8.00;;;6.90;99.90;;;;;;5113128;28;20185;-55
2023/12/19 06:53:57;;;;;;;7.33;5.90;;;6.90;99.90;;;;;;5113276;28;20496;-53
2023/12/19 06:56:27;;;;;;;11.10;7.00;;;6.90;99.90;;;;;;5111446;28;20474;-54
2023/12/19 06:58:53;;;;;;;8.30;6.13;;;6.90;99.90;;;;;;5112422;28;20487;-54
2023/12/19 07:01:18;;;;;;;8.03;6.10;;;6.90;99.90;;;;;;5112560;28;20911;-54
2023/12/19 07:03:44;;;;;;;8.10;6.07;;;6.90;99.90;;;;;;5112474;28;20450;-54
2023/12/19 07:06:14;;;;;;;8.17;6.20;;;6.90;99.90;;;;;;5112844;28;20220;-55
2023/12/19 07:08:40;;;;;;;8.00;5.77;;;6.90;99.90;;;;;;5111880;28;20961;-55
2023/12/19 07:11:05;;;;;;;8.87;6.70;;;6.90;99.90;;;;;;5112799;28;20421;-55
2023/12/19 07:13:32;;;;;;;7.53;5.53;;;6.90;99.90;;;;;;5111199;28;20179;-54
2023/12/19 07:15:58;;;;;;;8.57;6.20;;;6.90;99.90;;;;;;5112845;28;20229;-54
2023/12/19 07:18:23;;;;;;;8.07;5.47;;;6.90;99.90;;;;;;5112157;28;20429;-54
2023/12/19 07:20:49;;;;;;;7.37;6.13;;;6.90;99.90;;;;;;5111686;28;20194;-54
2023/12/19 07:23:15;;;;;;;7.13;6.03;;;6.90;99.90;;;;;;5111959;28;20204;-55
2023/12/19 07:25:41;;;;;;;8.20;6.43;;;6.90;99.90;;;;;;5112481;28;20221;-55
2023/12/19 07:28:06;;;;;;;6.93;6.13;;;6.90;99.90;;;;;;5112048;28;20188;-54
2023/12/19 07:30:32;;;;;;;7.40;6.17;;;6.90;99.90;;;;;;5112416;28;20460;-54
2023/12/19 07:32:59;;;;;;;8.30;6.40;;;6.90;99.90;;;;;;5111796;28;20183;-55
2023/12/19 07:35:25;;;;;;;8.13;7.00;;;6.90;99.90;;;;;;5111171;28;20571;-54
2023/12/19 07:37:51;;;;;;;8.00;6.47;;;6.90;99.90;;;;;;5111783;28;20424;-53
2023/12/19 07:40:16;;;;;;;7.17;6.37;;;6.90;99.90;;;;;;5112481;28;20905;-53
2023/12/19 07:42:44;;;;;;;8.40;6.50;;;6.90;99.90;;;;;;5112421;28;20185;-54
2023/12/19 07:45:13;;;;;;;7.47;6.13;;;6.90;99.90;;;;;;5110838;28;20604;-53
2023/12/19 07:47:39;;;;;;;6.80;6.10;;;6.90;99.90;;;;;;5111963;28;20414;-53
2023/12/19 07:50:05;;;;;;;6.57;5.90;;;6.90;99.90;;;;;;5112467;28;20405;-53
2023/12/19 07:52:31;;;;;;;9.03;6.83;;;6.90;99.90;;;;;;5111000;28;20214;-53
2023/12/19 07:54:57;;;;;;;7.57;6.47;;;6.90;99.90;;;;;;5111775;28;20497;-53
2023/12/19 07:57:22;;;;;;;7.83;6.07;;;6.80;99.90;;;;;;5111267;28;20237;-53
2023/12/19 07:59:49;;;;;;;7.70;6.47;;;6.80;99.90;;;;;;5111604;28;20186;-53
2023/12/19 08:02:15;;;;;;;8.70;6.53;;;6.90;99.90;;;;;;5112656;28;20591;-53
2023/12/19 08:04:42;;;;;;;6.90;6.07;;;6.90;99.90;;;;;;5111763;28;20424;-54
2023/12/19 08:07:08;;;;;;;7.00;6.00;;;6.90;99.90;;;;;;5110709;28;20238;-52
2023/12/19 08:09:34;;;;;;;6.00;5.33;;;6.90;99.90;;;;;;5112085;28;20410;-53
2023/12/19 08:11:59;;;;;;;6.30;5.70;;;6.90;99.90;;;;;;5110629;28;20468;-53
2023/12/19 08:14:25;;;;;;;5.73;5.13;;;6.90;99.90;;;;;;5111704;28;20184;-54
2023/12/19 08:16:51;;;;;;;6.17;5.57;;;6.90;99.90;;;;;;5111526;28;20270;-53
2023/12/19 08:19:17;;;;;;;7.03;5.80;;;6.90;99.90;;;;;;5111002;28;20169;-53
2023/12/19 08:21:50;;;;;;;5.87;5.03;;;6.90;99.90;;;;;;5111671;28;20188;-53
2023/12/19 08:24:16;;;;;;;5.63;5.13;;;6.90;99.90;;;;;;5111969;28;20913;-53
2023/12/19 08:26:52;;;;;;;5.30;4.80;;;6.90;99.90;;;;;;5113134;28;20410;-53
2023/12/19 08:29:18;;;;;;;7.80;5.17;;;6.90;99.90;;;;;;5115901;28;20175;-53
2023/12/19 08:31:47;;;;;;;6.70;4.67;;;6.90;99.90;;;;;;5115849;28;20411;-54
2023/12/19 08:34:17;;;;;;;5.97;4.47;;;6.90;99.90;;;;;;5115021;28;20172;-53
2023/12/19 08:36:43;;;;;;;5.00;4.50;;;6.80;99.90;;;;;;5115181;28;20575;-54
2023/12/19 08:39:10;;;;;;;5.27;4.77;;;6.90;99.90;;;;;;5115376;28;20410;-54
2023/12/19 08:41:37;;;;;;;4.30;3.97;;;6.90;99.90;;;;;;5115836;28;20493;-53
2023/12/19 08:44:03;;;;;;;5.13;4.60;;;6.90;99.90;;;;;;5115710;28;20422;-53
2023/12/19 08:46:29;;;;;;;4.33;3.97;;;6.90;99.90;;;;;;5114957;28;20424;-53
2023/12/19 08:48:54;;;;;;;4.77;4.30;;;6.80;99.90;;;;;;5114275;28;20437;-53
2023/12/19 08:51:21;;;;;;;4.83;4.33;;;6.80;99.90;;;;;;5115921;28;20179;-53
2023/12/19 08:53:46;;;;;;;3.90;3.50;;;6.80;99.90;;;;;;5115536;28;20173;-54
2023/12/19 08:56:12;;;;;;;5.30;4.10;;;6.80;99.90;;;;;;5115368;28;21024;-53
2023/12/19 08:58:37;;;;;;;4.77;3.93;;;6.80;99.90;;;;;;5114117;28;20181;-53
2023/12/19 09:01:03;;;;;;;4.53;4.13;;;6.80;99.90;;;;;;5114943;28;20235;-53
2023/12/19 09:03:29;;;;;;;4.40;3.73;;;6.80;99.90;;;;;;5115197;28;20190;-54
2023/12/19 09:05:54;;;;;;;3.93;3.60;;;6.80;99.90;;;;;;5115870;28;20406;-53
2023/12/19 09:08:21;;;;;;;3.83;3.50;;;6.80;99.90;;;;;;5114318;28;20247;-53
2023/12/19 09:10:46;;;;;;;5.60;3.80;;;6.80;99.90;;;;;;5114816;28;20192;-54
2023/12/19 09:13:12;;;;;;;4.17;3.77;;;6.80;99.90;;;;;;5114407;28;20415;-53
2023/12/19 09:15:37;;;;;;;4.07;3.67;;;6.80;99.90;;;;;;5114662;28;20736;-53
2023/12/19 09:18:03;;;;;;;4.40;3.80;;;6.80;99.90;;;;;;5114410;28;20179;-54
2023/12/19 09:20:29;;;;;;;5.30;4.07;;;6.80;99.90;;;;;;5114458;28;20197;-54
2023/12/19 09:22:55;;;;;;;3.90;3.50;;;6.80;99.90;;;;;;5114237;28;20883;-53
2023/12/19 09:25:21;;;;;;;4.10;3.70;;;6.80;99.90;;;;;;5115288;28;20421;-53
2023/12/19 09:27:46;;;;;;;3.60;3.30;;;6.80;99.90;;;;;;5114267;28;20181;-54
2023/12/19 09:30:15;;;;;;;3.50;3.20;;;6.80;99.90;;;;;;5114319;28;20265;-54
2023/12/19 09:32:41;;;;;;;4.50;3.83;;;6.80;99.90;;;;;;5113620;28;20189;-54
2023/12/19 09:35:07;;;;;;;5.00;3.67;;;6.90;99.90;;;;;;5114708;28;20469;-53
2023/12/19 09:37:34;;;;;;;4.13;3.73;;;6.80;99.90;;;;;;5113229;28;20282;-54
2023/12/19 09:39:59;;;;;;;3.87;3.40;;;6.90;99.90;;;;;;5114001;28;20939;-54
2023/12/19 09:42:25;;;;;;;4.67;3.30;;;6.90;99.90;;;;;;5114240;28;20520;-53
2023/12/19 09:44:51;;;;;;;3.50;3.20;;;6.90;99.90;;;;;;5114381;28;20177;-54
2023/12/19 09:47:28;;;;;;;4.57;3.47;;;6.90;99.90;;;;;;5114588;28;20192;-54
2023/12/19 09:50:00;;;;;;;4.20;3.80;;;6.90;99.90;;;;;;5113409;28;20199;-53
2023/12/19 09:52:26;;;;;;;3.77;3.37;;;7.00;99.90;;;;;;5113740;28;20395;-53
2023/12/19 09:54:52;;;;;;;4.07;3.40;;;7.00;99.90;;;;;;5113066;28;20541;-53
2023/12/19 09:57:20;;;;;;;3.17;2.87;;;6.90;99.90;;;;;;5114681;28;20493;-54
2023/12/19 09:59:47;;;;;;;3.63;3.33;;;6.90;99.90;;;;;;5113733;28;20646;-53
2023/12/19 10:02:14;;;;;;;3.50;3.20;;;6.90;99.90;;;;;;5113937;28;20779;-54
2023/12/19 10:04:41;;;;;;;3.57;3.27;;;6.90;99.90;;;;;;5113174;28;20421;-53
2023/12/19 10:07:06;;;;;;;2.90;2.70;;;6.90;99.90;;;;;;5113093;28;20477;-54
2023/12/19 10:09:32;;;;;;;4.83;3.43;;;7.00;99.90;;;;;;5113928;28;20425;-53
2023/12/19 10:12:09;;;;;;;3.60;3.30;;;7.00;99.90;;;;;;5113191;28;20206;-53
2023/12/19 10:14:35;;;;;;;3.43;3.17;;;7.00;99.90;;;;;;5114219;28;20233;-53
2023/12/19 10:17:04;;;;;;;3.50;3.20;;;7.00;99.90;;;;;;5113080;28;20411;-53
2023/12/19 10:19:30;;;;;;;3.73;3.43;;;7.00;99.90;;;;;;5113301;28;20180;-53
2023/12/19 10:22:06;;;;;;;3.67;3.37;;;7.00;99.90;;;;;;5112724;28;20415;-53
2023/12/19 10:24:32;;;;;;;4.10;3.70;;;7.00;99.90;;;;;;5113894;28;20425;-53
2023/12/19 10:27:02;;;;;;;3.80;3.50;;;7.00;99.90;;;;;;5112897;28;20425;-53
2023/12/19 10:29:36;;;;;;;4.50;4.10;;;7.00;99.90;;;;;;5113474;28;20419;-53
2023/12/19 10:32:19;;;;;;;4.73;3.93;;;7.00;99.90;;;;;;5112683;28;20504;-53
2023/12/19 10:34:45;;;;;;;4.37;3.97;;;7.00;99.90;;;;;;5113296;28;20417;-53
2023/12/19 10:37:12;;;;;;;3.97;3.67;;;7.00;99.90;;;;;;5113187;28;20414;-53
2023/12/19 10:39:44;;;;;;;4.70;4.30;;;7.10;99.90;;;;;;5112904;28;20436;-53
2023/12/19 10:42:10;;;;;;;4.00;3.70;;;7.00;99.90;;;;;;5113260;28;20443;-52
2023/12/19 10:44:39;;;;;;;4.97;4.57;;;7.10;99.90;;;;;;5112807;28;20489;-53
2023/12/19 10:47:10;;;;;;;7.13;4.43;;;7.10;99.90;;;;;;5112093;28;20414;-53
2023/12/19 10:49:37;;;;;;;5.40;4.20;;;7.10;99.90;;;;;;5112438;28;20409;-53
2023/12/19 10:52:06;;;;;;;4.37;3.97;;;7.10;99.90;;;;;;5112715;28;20425;-53
2023/12/19 10:54:35;;;;;;;5.00;4.57;;;7.10;99.90;;;;;;5113065;28;20415;-53
2023/12/19 10:57:13;;;;;;;5.07;4.33;;;7.10;99.90;;;;;;5111833;28;20406;-56
2023/12/19 10:59:54;;;;;;;4.73;4.30;;;7.10;99.90;;;;;;5108161;28;20776;-50
2023/12/19 11:02:58;;;;;;;4.70;4.20;;;7.20;99.90;;;;;;5113061;28;20421;-50
2023/12/19 11:05:42;;;;;;;4.63;4.23;;;7.20;99.90;;;;;;5112696;28;20506;-49
2023/12/19 11:08:17;;;;;;;5.40;4.90;;;7.20;99.90;;;;;;5112305;28;20479;-50
2023/12/19 11:11:18;;;;;;;5.40;4.90;;;7.20;99.90;;;;;;5112137;28;20817;-49
2023/12/19 11:13:45;;;;;;;5.30;4.80;;;7.20;99.90;;;;;;5112393;28;20415;-51
2023/12/19 11:16:17;;;;;;;5.43;4.80;;;7.20;99.90;;;;;;5111833;28;20493;-49
2023/12/19 11:18:50;;;;;;;5.80;5.30;;;7.20;99.90;;;;;;5112983;28;20400;-49
2023/12/19 11:21:35;;;;;;;5.67;5.17;;;7.20;99.90;;;;;;5112258;28;20539;-50
2023/12/19 11:24:07;;;;;;;5.80;5.30;;;7.30;99.90;;;;;;5112300;28;20398;-50
2023/12/19 11:26:44;;;;;;;5.80;5.20;;;7.30;99.90;;;;;;5112389;28;20555;-49
2023/12/19 11:29:45;;;;;;;6.07;5.57;;;7.30;99.90;;;;;;5111250;28;20448;-50
2023/12/19 11:32:29;;;;;;;6.40;5.43;;;7.30;99.90;;;;;;5112928;28;20414;-50
2023/12/19 11:35:06;;;;;;;6.57;5.90;;;7.30;99.90;;;;;;5112506;28;20921;-49
2023/12/19 11:37:33;;;;;;;6.70;6.00;;;7.30;99.90;;;;;;5112482;28;20410;-49
2023/12/19 11:39:58;;;;;;;7.00;6.30;;;7.30;99.90;;;;;;5111768;28;20927;-49
2023/12/19 11:42:39;;;;;;;11.87;6.57;;;7.30;99.90;;;;;;5111742;28;20407;-49
2023/12/19 11:45:25;;;;;;;7.87;6.50;;;7.30;99.90;;;;;;5112080;28;20544;-49
2023/12/19 11:47:52;;;;;;;9.93;6.90;;;7.30;99.90;;;;;;5097347;28;20979;-49
2023/12/19 11:50:39;;;;;;;8.83;7.83;;;7.40;99.90;;;;;;5111446;28;20409;-50
2023/12/19 11:53:07;;;;;;;8.23;7.00;;;7.40;99.90;;;;;;5112211;28;20418;-51
2023/12/19 11:55:33;;;;;;;8.40;6.90;;;7.40;99.90;;;;;;5111667;28;20466;-50
2023/12/19 11:58:12;;;;;;;8.30;7.17;;;7.40;99.90;;;;;;5111589;28;20410;-50
2023/12/19 12:00:37;;;;;;;9.57;8.07;;;7.50;99.90;;;;;;5113658;28;20207;-51
2023/12/19 12:03:11;;;;;;;12.73;8.33;;;7.50;99.90;;;;;;5115443;28;20509;-50
2023/12/19 12:05:37;;;;;;;9.20;7.83;;;7.40;99.90;;;;;;5116376;28;20198;-50
2023/12/19 12:08:03;;;;;;;9.10;8.20;;;7.50;99.90;;;;;;5115803;28;20496;-50
2023/12/19 12:10:29;;;;;;;8.87;7.70;;;7.50;99.90;;;;;;5116372;28;20419;-50
2023/12/19 12:13:01;;;;;;;10.03;8.90;;;7.50;99.90;;;;;;5115999;28;20414;-49
2023/12/19 12:15:27;;;;;;;10.97;8.83;;;7.50;99.90;;;;;;5115489;28;20204;-50
2023/12/19 12:18:06;;;;;;;9.83;8.67;;;7.50;99.90;;;;;;5115593;28;20470;-49
2023/12/19 12:20:34;;;;;;;12.80;9.60;;;7.50;99.90;;;;;;5115553;28;20691;-49
2023/12/19 12:23:01;;;;;;;10.90;8.80;;;7.50;99.90;;;;;;5115502;28;20452;-50
2023/12/19 12:25:26;;;;;;;11.10;9.00;;;7.60;99.90;;;;;;5115210;28;20419;-49
2023/12/19 12:27:58;;;;;;;11.13;9.07;;;7.50;99.90;;;;;;5116206;28;20479;-49
2023/12/19 12:30:24;;;;;;;9.50;8.40;;;7.60;99.90;;;;;;5115567;28;20258;-49
2023/12/19 12:32:50;;;;;;;9.63;8.27;;;7.60;99.90;;;;;;5116053;28;20973;-49
2023/12/19 12:35:30;;;;;;;10.70;8.80;;;7.60;99.90;;;;;;5114670;28;20749;-50
2023/12/19 12:38:00;;;;;;;12.57;9.67;;;7.60;99.90;;;;;;5115440;28;20524;-49
2023/12/19 12:40:26;;;;;;;10.57;8.80;;;7.60;99.90;;;;;;5114719;28;20417;-49
2023/12/19 12:42:53;;;;;;;11.40;8.90;;;7.60;99.90;;;;;;5115979;28;20415;-49
2023/12/19 12:45:19;;;;;;;12.30;9.23;;;7.60;99.90;;;;;;5114775;28;20914;-50
2023/12/19 12:47:44;;;;;;;9.30;8.13;;;7.60;99.90;;;;;;5114541;28;20410;-50